• Join FlightAware (Why Join?)
  • Login
  • US Flag 
07:43AM EDT


 

Airport Tracker/Info


-or-


 

Live Flight TrackerFlight Track Log ✈ N469S ✈ 22-Apr-2013 ✈ KASW - KMQJ

Flight Track Log - Related Links

Times and Time Zones

All times are in EDT time to prevent confusion due to time zone crossing. See the N469S flight status page for this flight to view local times or setup timezone preferences in your user account.

Time Position Orientation Groundspeed Altitude Reporting Facility
EDT Latitude Longitude Course Direction KTS MPH feet Rate Location/Type
06:29AM 40.9986 -85.8256 182° South 187 215 6,600  Level Chicago Center
06:30AM 40.9461 -85.8281 182° South 190 219 6,600 -60 Level Chicago Center
06:31AM 40.8931 -85.8322 183° South 191 220 6,500  Descending Chicago Center
06:32AM 40.8394 -85.8358 183° South 193 222 6,600  Climbing Chicago Center
06:33AM 40.7858 -85.8397 183° South 192 221 6,600  Level Chicago Center
06:34AM 41.2569 -85.8408 182° South  Level Estimated
06:34AM 40.7336 -85.8428 183° South 190 219 6,600  Level Chicago Center
06:35AM 40.6797 -85.8489 185° South 192 221 6,600  Level Chicago Center
06:36AM 40.6253 -85.8514 182° South 195 224 6,600  Level Chicago Center
06:37AM 40.5739 -85.8550 183° South 188 216 6,600  Level Chicago Center
06:38AM 40.5197 -85.8572 182° South 192 221 6,600  Level Chicago Center
06:39AM 40.4647 -85.8619 184° South 197 227 6,600  Level Chicago Center
06:40AM 40.4003 -85.8669 183° South 194 223 6,600  Level Chicago Center
06:41AM 40.3469 -85.8694 182° South 192 221 6,600 -60 Level Chicago Center
06:42AM 40.2931 -85.8692 180° South 193 222 6,500 -540 Descending Chicago Center
06:43AM 40.2347 -85.8731 183° South 201 231 5,600 -900 Descending Chicago Center
06:44AM 40.1753 -85.8742 181° South 209 241 4,700 -900 Descending Chicago Center
06:45AM 40.1186 -85.8808 185° South 208 239 3,800 -960 Descending Chicago Center
06:46AM 40.1000 -85.8833 186° South 200 230 3,300 -1,080 Descending Indianapolis TRACON
06:48AM 40.0407 -85.8833 180° South  Level FlightAware Approximate
06:55AM 39.8435 -85.8971 180° South  Level Estimated
06:56AM 39.8435 -85.8971 180° South  Level Estimated